Time;durP1;ratioP1;P1;durP2;ratioP2;P2;SDS_P1;SDS_P2;PMS_P1;PMS_P2;Temp;Humidity;BMP_temperature;BMP_pressure;BME280_temperature;BME280_humidity;BME280_pressure;Samples;Min_cycle;Max_cycle;Signal;HPM_P1;HPM_P2
2023/08/17 07:29:22;;;;;;;29.05;6.32;;;;;;;24.81;52.06;100417.75;4527370;23;20079;-93
2023/08/17 07:31:49;;;;;;;24.80;6.20;;;;;;;24.81;48.61;100405.78;4915397;29;20037;-89
2023/08/17 07:34:16;;;;;;;26.55;6.95;;;;;;;24.83;50.08;100408.97;4908692;29;20036;-90
2023/08/17 07:36:42;;;;;;;20.27;5.38;;;;;;;24.61;46.44;100375.19;4893711;29;20100;-93
2023/08/17 07:39:08;;;;;;;31.50;5.60;;;;;;;24.77;47.02;100388.97;4913312;29;20080;-88
2023/08/17 07:41:35;;;;;;;28.27;6.68;;;;;;;24.88;46.01;100405.03;4905460;29;20049;-91
2023/08/17 07:44:00;;;;;;;16.08;5.65;;;;;;;24.83;46.89;100395.00;4895896;29;20044;-89
2023/08/17 07:46:31;;;;;;;26.98;5.95;;;;;;;24.98;46.89;100405.16;4900103;29;20041;-90
2023/08/17 07:48:59;;;;;;;36.13;5.43;;;;;;;25.02;47.15;100405.19;4875592;29;20045;-91
2023/08/17 07:51:26;;;;;;;21.25;5.45;;;;;;;24.85;47.08;100373.03;4892462;29;20052;-88
2023/08/17 07:53:51;;;;;;;20.63;5.43;;;;;;;25.12;47.84;100398.09;5024435;23;20060;-93
2023/08/17 07:56:17;;;;;;;44.28;6.13;;;;;;;25.15;47.15;100392.53;4892837;29;20508;-93
2023/08/17 07:58:44;;;;;;;23.58;5.80;;;;;;;25.28;49.15;100391.06;4913468;29;20091;-88
2023/08/17 08:01:11;;;;;;;22.58;5.75;;;;;;;25.19;47.12;100372.97;4902751;29;20052;-90
2023/08/17 08:03:41;;;;;;;41.15;6.28;;;;;;;25.41;47.35;100399.97;4902668;29;20119;-90
2023/08/17 08:06:07;;;;;;;30.17;5.88;;;;;;;25.40;47.70;100391.97;4875555;29;20044;-89
2023/08/17 08:08:36;;;;;;;92.32;8.52;;;;;;;25.48;44.94;100402.81;4901079;29;20047;-93
2023/08/17 08:11:09;;;;;;;24.42;5.50;;;;;;;25.49;45.19;100395.22;4909603;29;20040;-90
2023/08/17 08:13:54;;;;;;;23.67;4.70;;;;;;;25.65;44.76;100394.94;4908468;29;20052;-92
2023/08/17 08:16:25;;;;;;;49.15;6.60;;;;;;;25.50;43.59;100380.84;4887796;29;20048;-92
2023/08/17 08:18:51;;;;;;;22.75;5.05;;;;;;;25.57;44.94;100382.09;4907741;29;20060;-91
2023/08/17 08:21:19;;;;;;;15.77;5.38;;;;;;;25.59;43.18;100385.28;4885430;29;20049;-90
2023/08/17 08:23:45;;;;;;;22.75;5.28;;;;;;;25.60;44.18;100386.94;4900557;29;20016;-91
2023/08/17 08:26:30;;;;;;;13.40;5.00;;;;;;;25.55;42.12;100377.66;4932626;29;20048;-91
2023/08/17 08:28:56;;;;;;;10.10;4.78;;;;;;;25.61;43.27;100380.91;4871775;29;20120;-90
2023/08/17 08:31:22;;;;;;;17.63;5.10;;;;;;;25.93;44.98;100394.38;4909342;29;20588;-90
2023/08/17 08:33:54;;;;;;;23.92;6.00;;;;;;;25.91;44.41;100360.34;4918016;29;20048;-89
2023/08/17 08:36:27;;;;;;;23.15;4.97;;;;;;;26.01;44.96;100370.78;4879443;29;20103;-88
2023/08/17 08:39:01;;;;;;;13.40;4.82;;;;;;;26.19;44.91;100382.91;4886368;29;20051;-89
2023/08/17 08:41:29;;;;;;;;;;;;;;;26.19;42.74;100382.06;4884251;29;20123;-87
2023/08/17 08:43:55;;;;;;;20.20;5.68;;;;;;;26.15;44.89;100387.66;4910601;29;20384;-89
2023/08/17 08:46:26;;;;;;;9.60;4.97;;;;;;;26.10;43.26;100384.47;4894724;29;20056;-91
2023/08/17 08:48:54;;;;;;;21.48;5.78;;;;;;;26.10;44.74;100354.44;4884087;29;20040;-91
2023/08/17 08:51:28;;;;;;;31.75;6.45;;;;;;;26.35;44.26;100382.56;4900818;29;20067;-89
2023/08/17 08:54:04;;;;;;;19.63;5.07;;;;;;;26.14;44.59;100349.63;4904339;29;20043;-88
2023/08/17 08:56:38;;;;;;;21.30;5.50;;;;;;;26.31;44.35;100367.72;4915113;29;20043;-88
2023/08/17 08:59:08;;;;;;;26.70;5.85;;;;;;;26.40;45.89;100368.16;4885208;29;20033;-89
2023/08/17 09:01:35;;;;;;;10.68;6.07;;;;;;;26.41;44.90;100361.34;4908043;29;20056;-91
2023/08/17 09:04:02;;;;;;;19.38;5.40;;;;;;;26.36;45.03;100353.34;4904495;29;20052;-89
2023/08/17 09:06:40;;;;;;;23.30;5.40;;;;;;;26.61;45.61;100380.69;4909469;29;20040;-88
2023/08/17 09:09:32;;;;;;;11.85;5.40;;;;;;;26.29;43.68;100335.66;4897635;29;20048;-89
2023/08/17 09:12:00;;;;;;;14.57;6.07;;;;;;;26.16;42.72;100326.84;4919140;29;20029;-89
2023/08/17 09:14:49;;;;;;;14.90;6.07;;;;;;;26.39;43.60;100348.91;4926487;29;20044;-88
2023/08/17 09:17:24;;;;;;;20.33;6.38;;;;;;;26.44;42.06;100342.94;4877164;29;20151;-86
2023/08/17 09:19:54;;;;;;;33.15;7.00;;;;;;;26.52;42.56;100372.63;4875234;29;20048;-89
2023/08/17 09:22:26;;;;;;;31.20;6.20;;;;;;;26.30;43.06;100342.91;4920321;29;20069;-87
2023/08/17 09:24:53;;;;;;;14.75;6.07;;;;;;;26.62;43.48;100371.06;4923490;29;20052;-87
2023/08/17 09:27:20;;;;;;;29.20;6.15;;;;;;;26.62;43.87;100348.63;4885336;29;20088;-88
2023/08/17 09:29:50;;;;;;;18.23;5.88;;;;;;;26.73;43.72;100343.06;4911198;29;20131;-87
2023/08/17 09:32:16;;;;;;;12.70;6.03;;;;;;;26.78;44.40;100340.63;4894800;29;20056;-88
2023/08/17 09:34:49;;;;;;;20.77;5.63;;;;;;;26.89;45.20;100338.66;4926456;29;20040;-87
2023/08/17 09:37:16;;;;;;;19.17;6.72;;;;;;;26.83;43.36;100331.03;4903065;29;20052;-87
2023/08/17 09:39:44;;;;;;;56.67;9.25;;;;;;;26.68;42.17;100304.94;4912242;29;20056;-90
2023/08/17 09:42:12;;;;;;;16.77;6.18;;;;;;;26.84;42.95;100336.25;4899721;29;20068;-86
2023/08/17 09:44:42;;;;;;;28.00;6.70;;;;;;;26.75;42.04;100318.97;4892836;29;20036;-87
2023/08/17 09:47:10;;;;;;;;;;;;;;;27.07;41.92;100357.50;4887723;29;20040;-88
2023/08/17 09:49:36;;;;;;;18.30;5.30;;;;;;;26.78;41.41;100326.59;4896300;29;19930;-88
2023/08/17 09:52:02;;;;;;;18.27;5.95;;;;;;;26.85;42.37;100334.22;4916699;29;20044;-87
2023/08/17 09:54:30;;;;;;;;;;;;;;;27.19;44.73;100359.97;4890909;29;20131;-87
2023/08/17 09:57:02;;;;;;;8.90;4.97;;;;;;;27.13;39.42;100358.75;4909428;29;19923;-88
2023/08/17 10:00:02;;;;;;;20.13;5.75;;;;;;;26.99;42.65;100322.22;4910086;29;20057;-91
2023/08/17 10:02:52;;;;;;;11.25;5.13;;;;;;;26.75;39.89;100295.75;4915320;29;20030;-94
2023/08/17 10:05:37;;;;;;;10.10;5.88;;;;;;;27.25;43.82;100352.75;4914713;29;20044;-91
2023/08/17 10:08:35;;;;;;;20.45;5.97;;;;;;;27.35;42.26;100354.75;4935717;29;20047;-94
2023/08/17 10:11:27;;;;;;;23.75;6.60;;;;;;;27.41;42.34;100335.47;4878766;29;20049;-92
2023/08/17 10:14:51;;;;;;;23.10;5.72;;;;;;;27.35;41.18;100315.44;4864283;29;20032;-92
2023/08/17 10:17:27;;;;;;;13.40;6.00;;;;;;;27.16;39.08;100294.19;4837587;29;20064;-90
2023/08/17 10:28:35;;;;;;;29.65;7.22;;;;;;;27.12;39.25;100318.63;5178406;23;20026;-89
2023/08/17 10:31:04;;;;;;;13.68;6.25;;;;;;;27.05;38.45;100301.78;4880687;29;20040;-89
2023/08/17 10:33:44;;;;;;;15.00;5.35;;;;;;;27.09;37.98;100310.22;4894234;29;20053;-91
2023/08/17 10:36:21;;;;;;;17.48;6.18;;;;;;;27.34;38.47;100355.13;4890982;29;20045;-89
2023/08/17 10:38:47;;;;;;;14.55;6.40;;;;;;;27.02;38.38;100291.38;4891263;29;20058;-89
2023/08/17 10:41:20;;;;;;;26.33;6.55;;;;;;;27.34;40.10;100327.84;4886084;29;20044;-91
2023/08/17 10:44:00;;;;;;;19.42;6.22;;;;;;;27.63;39.83;100334.22;4891989;29;20120;-90
2023/08/17 10:46:48;;;;;;;12.75;5.25;;;;;;;27.81;38.28;100342.63;4882453;29;20131;-90
2023/08/17 10:49:25;;;;;;;19.15;5.63;;;;;;;27.89;38.63;100340.63;4886211;29;20052;-90
2023/08/17 10:52:08;;;;;;;13.15;5.97;;;;;;;27.64;40.04;100302.09;4882817;29;20184;-90
2023/08/17 10:54:42;;;;;;;17.05;6.18;;;;;;;27.80;41.02;100296.06;4904940;29;20047;-91
2023/08/17 10:57:37;;;;;;;17.55;5.82;;;;;;;27.93;37.13;100295.66;4898076;29;20395;-89
2023/08/17 11:00:31;;;;;;;15.82;5.90;;;;;;;27.72;36.50;100271.22;4915631;23;20064;-89
2023/08/17 11:03:11;;;;;;;18.77;6.47;;;;;;;28.05;41.45;100320.50;4854510;29;20050;-89
2023/08/17 11:05:58;;;;;;;17.00;6.25;;;;;;;28.11;36.92;100296.34;4856159;29;20061;-90
2023/08/17 11:08:55;;;;;;;10.65;4.82;;;;;;;28.26;35.19;100323.19;4889464;29;20052;-88
2023/08/17 11:11:23;;;;;;;12.43;5.32;;;;;;;27.92;34.71;100274.38;4861526;29;20050;-87
2023/08/17 11:13:50;;;;;;;12.00;5.75;;;;;;;28.13;35.37;100308.00;4879941;29;20047;-87
2023/08/17 11:16:22;;;;;;;33.70;5.90;;;;;;;27.82;35.38;100259.94;4883172;29;20059;-90
2023/08/17 11:18:49;;;;;;;17.83;5.95;;;;;;;28.16;35.81;100298.75;4865547;29;20081;-86
2023/08/17 11:21:19;;;;;;;14.35;4.88;;;;;;;28.24;34.68;100303.09;4856816;29;20924;-87
2023/08/17 11:23:46;;;;;;;15.52;5.53;;;;;;;28.41;34.77;100311.91;4877721;29;20137;-86
2023/08/17 11:26:16;;;;;;;18.98;5.53;;;;;;;28.48;35.17;100309.88;4875040;29;20102;-85
2023/08/17 11:28:44;;;;;;;19.17;5.80;;;;;;;28.59;35.32;100323.84;4864373;29;20093;-87
2023/08/17 11:31:16;;;;;;;32.33;7.30;;;;;;;28.65;35.18;100310.97;4870781;29;20071;-89
2023/08/17 11:33:43;;;;;;;22.63;6.45;;;;;;;28.68;36.65;100290.44;4881994;29;20068;-86
2023/08/17 11:36:10;;;;;;;22.17;6.13;;;;;;;28.71;36.80;100281.16;4863193;29;20539;-88
2023/08/17 11:38:39;;;;;;;9.55;5.43;;;;;;;28.76;35.67;100291.19;4862213;29;20046;-84
2023/08/17 11:41:12;;;;;;;21.90;6.45;;;;;;;28.76;37.14;100282.72;4879117;29;20131;-86
2023/08/17 11:43:38;;;;;;;16.15;5.97;;;;;;;28.97;36.71;100288.22;4876435;29;20601;-88
2023/08/17 11:46:05;;;;;;;15.18;5.70;;;;;;;29.00;36.14;100264.06;4842977;29;20045;-87
2023/08/17 11:48:33;;;;;;;18.45;6.85;;;;;;;29.08;35.96;100268.44;4856019;29;20100;-88
2023/08/17 11:50:59;;;;;;;20.13;6.00;;;;;;;28.99;34.69;100271.69;4876811;29;20071;-88
2023/08/17 11:53:32;;;;;;;17.88;6.20;;;;;;;28.92;35.86;100259.69;4879284;29;20077;-88
2023/08/17 11:55:58;;;;;;;16.35;5.72;;;;;;;29.13;35.13;100278.44;4870046;29;20049;-86
2023/08/17 11:58:57;;;;;;;51.95;8.68;;;;;;;29.13;33.19;100259.50;4867047;29;20040;-92
2023/08/17 12:01:23;;;;;;;34.80;7.75;;;;;;;29.21;33.19;100289.22;4835501;29;20518;-91
2023/08/17 12:03:50;;;;;;;25.77;6.22;;;;;;;29.25;34.40;100278.72;4884655;29;20044;-88
2023/08/17 12:06:17;;;;;;;25.13;7.05;;;;;;;29.22;34.79;100251.38;4880387;29;20045;-88
2023/08/17 12:08:45;;;;;;;17.50;5.82;;;;;;;29.29;34.04;100263.81;4895342;29;20041;-84
2023/08/17 12:11:12;;;;;;;12.02;5.32;;;;;;;29.23;33.79;100238.91;4897869;29;20432;-86
2023/08/17 12:13:42;;;;;;;21.15;6.68;;;;;;;29.43;33.80;100258.00;4900577;29;20040;-86
2023/08/17 12:16:15;;;;;;;36.45;6.85;;;;;;;29.07;32.65;100235.84;4899693;29;20047;-86
2023/08/17 12:18:45;;;;;;;20.38;5.63;;;;;;;29.11;32.85;100256.34;4892926;29;20044;-86
2023/08/17 12:21:11;;;;;;;22.20;5.35;;;;;;;29.15;31.19;100250.66;4900107;29;20072;-85
2023/08/17 12:23:39;;;;;;;10.65;5.28;;;;;;;29.26;32.18;100259.78;4903038;29;20048;-84
2023/08/17 12:26:05;;;;;;;32.45;6.45;;;;;;;29.33;33.82;100251.25;4912087;29;20076;-83
2023/08/17 12:28:34;;;;;;;30.73;6.43;;;;;;;29.54;36.03;100246.59;4895763;29;20048;-84
2023/08/17 12:31:02;;;;;;;17.55;5.85;;;;;;;29.85;35.15;100264.41;4886105;29;20116;-84
2023/08/17 12:33:30;;;;;;;25.83;6.72;;;;;;;29.99;33.21;100254.97;4902623;29;20048;-84
2023/08/17 12:35:56;;;;;;;39.75;6.85;;;;;;;30.00;33.07;100243.28;4888202;29;20045;-87
2023/08/17 12:38:24;;;;;;;29.65;6.82;;;;;;;29.97;31.47;100244.13;4902450;29;20507;-84
2023/08/17 12:40:51;;;;;;;13.35;5.65;;;;;;;29.78;30.71;100241.94;4902655;29;20045;-84
2023/08/17 12:43:17;;;;;;;13.10;5.68;;;;;;;29.95;32.70;100252.19;4866142;29;20578;-90
2023/08/17 12:45:43;;;;;;;9.13;5.13;;;;;;;29.91;33.16;100240.16;4874863;29;20056;-90
2023/08/17 12:48:12;;;;;;;26.98;7.85;;;;;;;29.93;34.88;100226.44;4872290;29;20053;-91
2023/08/17 12:50:42;;;;;;;16.13;6.55;;;;;;;29.75;29.59;100206.94;4868559;29;20041;-89
2023/08/17 12:53:08;;;;;;;18.13;6.38;;;;;;;29.72;30.25;100210.59;4882557;29;20049;-88
2023/08/17 12:55:34;;;;;;;30.27;7.65;;;;;;;29.49;32.04;100177.44;4868145;29;20106;-90
2023/08/17 12:58:00;;;;;;;;;;;;;;;29.96;31.88;100234.84;4839384;29;20188;-90
2023/08/17 13:00:28;;;;;;;18.08;5.57;;;;;;;30.12;32.29;100237.03;4853465;29;19924;-89
2023/08/17 13:02:54;;;;;;;17.30;5.65;;;;;;;30.05;32.07;100223.03;4853319;29;20041;-89
2023/08/17 13:05:22;;;;;;;26.27;6.47;;;;;;;29.98;34.06;100197.78;4852121;29;20618;-90
2023/08/17 13:07:48;;;;;;;39.92;7.40;;;;;;;30.14;33.37;100214.06;4866940;29;20605;-89
2023/08/17 13:10:14;;;;;;;18.98;7.10;;;;;;;30.06;31.94;100216.19;4854407;29;20053;-88
2023/08/17 13:12:41;;;;;;;44.20;10.52;;;;;;;30.05;30.84;100216.63;4864308;29;20052;-87
2023/08/17 13:15:09;;;;;;;68.60;11.48;;;;;;;30.07;32.10;100217.78;4868364;29;20057;-87
2023/08/17 13:17:35;;;;;;;107.85;13.60;;;;;;;30.01;32.54;100198.94;4882316;29;20045;-86
2023/08/17 13:20:03;;;;;;;47.60;8.93;;;;;;;30.19;33.39;100222.06;4868793;29;20080;-86
2023/08/17 13:22:31;;;;;;;39.40;7.95;;;;;;;30.25;33.31;100226.00;4885918;29;20049;-89
2023/08/17 13:24:57;;;;;;;39.63;8.68;;;;;;;30.09;34.02;100192.78;4897921;29;20059;-86
2023/08/17 13:27:24;;;;;;;27.15;7.32;;;;;;;30.17;34.00;100218.88;4899240;29;20040;-86
2023/08/17 13:29:50;;;;;;;29.70;8.05;;;;;;;30.04;34.28;100206.56;4898788;29;20140;-87
2023/08/17 13:32:16;;;;;;;;;;;;;;;30.17;34.54;100235.78;4884959;29;20065;-86
2023/08/17 13:34:42;;;;;;;22.95;6.18;;;;;;;29.92;32.86;100208.72;4879632;29;19927;-84
2023/08/17 13:37:08;;;;;;;38.05;7.30;;;;;;;30.00;34.90;100197.34;4895738;29;20040;-85
2023/08/17 13:39:34;;;;;;;45.38;7.88;;;;;;;30.13;34.29;100206.81;4881978;29;20128;-87
2023/08/17 13:42:00;;;;;;;21.83;6.65;;;;;;;30.04;33.95;100204.53;4881619;29;20404;-88
2023/08/17 13:44:27;;;;;;;47.13;7.13;;;;;;;29.93;34.08;100204.69;4884963;29;20136;-87
2023/08/17 13:46:53;;;;;;;24.50;6.63;;;;;;;30.14;32.38;100226.16;4853507;29;20411;-86
2023/08/17 13:49:20;;;;;;;81.22;9.70;;;;;;;30.12;35.73;100216.50;4888746;29;20040;-86
2023/08/17 13:51:46;;;;;;;21.95;6.13;;;;;;;30.06;35.19;100241.56;4900362;29;20081;-86
2023/08/17 13:54:12;;;;;;;20.33;6.50;;;;;;;29.87;33.84;100209.22;4901718;29;20546;-85
2023/08/17 13:56:40;;;;;;;;;;;;;;;29.98;33.91;100225.97;4904324;29;20503;-88
2023/08/17 13:59:08;;;;;;;36.30;7.82;;;;;;;29.76;35.60;100182.38;4905724;29;19923;-88
2023/08/17 14:01:35;;;;;;;35.20;6.88;;;;;;;29.79;35.08;100181.53;4909375;29;20064;-85
2023/08/17 14:04:03;;;;;;;;;;;;;;;30.02;35.07;100215.44;4903717;29;20082;-86
2023/08/17 14:06:29;;;;;;;72.45;10.98;;;;;;;29.75;36.16;100194.88;4888168;29;19982;-85
2023/08/17 14:08:57;;;;;;;74.72;18.00;;;;;;;29.79;35.99;100204.88;4893001;29;20073;-87
2023/08/17 14:11:23;;;;;;;;;;;;;;;29.83;35.51;100216.09;4888136;29;20041;-87
2023/08/17 14:13:51;;;;;;;43.60;7.88;;;;;;;29.38;34.31;100162.72;4848369;29;19924;-91
2023/08/17 14:16:17;;;;;;;70.18;17.88;;;;;;;29.30;36.71;100152.72;4839206;29;20061;-86
2023/08/17 14:18:44;;;;;;;40.85;8.85;;;;;;;29.41;35.60;100178.78;4866022;29;20065;-85
2023/08/17 14:21:11;;;;;;;59.42;15.45;;;;;;;29.41;37.63;100190.84;4881427;29;20081;-86
2023/08/17 14:23:38;;;;;;;39.35;7.93;;;;;;;29.41;38.18;100198.50;4879052;29;20499;-85
2023/08/17 14:26:04;;;;;;;35.92;8.00;;;;;;;29.24;37.80;100160.88;4879159;29;20490;-86
2023/08/17 14:28:30;;;;;;;58.88;9.13;;;;;;;29.40;36.94;100203.31;4864713;29;20052;-86
2023/08/17 14:30:58;;;;;;;32.90;8.50;;;;;;;29.25;35.62;100185.78;4864462;29;20053;-85
2023/08/17 14:33:24;;;;;;;17.77;7.78;;;;;;;29.18;36.14;100176.63;4847064;29;20048;-85
2023/08/17 14:35:51;;;;;;;20.25;6.38;;;;;;;29.33;35.07;100213.84;4878513;29;20072;-86
2023/08/17 14:38:17;;;;;;;19.85;7.20;;;;;;;29.22;35.96;100209.13;4863061;29;20060;-86
2023/08/17 14:40:44;;;;;;;91.32;24.70;;;;;;;29.20;37.65;100203.13;4878413;29;20048;-86
2023/08/17 14:43:13;;;;;;;37.08;7.40;;;;;;;28.90;36.73;100172.03;4866283;29;20044;-86
2023/08/17 14:45:41;;;;;;;25.27;6.93;;;;;;;29.01;37.08;100182.03;4880054;29;20472;-85
2023/08/17 14:48:07;;;;;;;25.13;6.93;;;;;;;28.89;35.96;100171.25;4830898;29;20049;-86
2023/08/17 14:50:34;;;;;;;47.45;10.05;;;;;;;28.90;37.33;100177.66;4865967;29;20060;-86
2023/08/17 14:53:06;;;;;;;23.40;9.05;;;;;;;29.26;37.69;100214.72;4866381;29;20048;-91
2023/08/17 14:55:57;;;;;;;54.08;8.82;;;;;;;29.02;37.82;100163.09;4896122;29;20055;-88
2023/08/17 14:58:23;;;;;;;40.97;11.10;;;;;;;29.21;37.73;100196.28;4874505;29;20135;-88
2023/08/17 15:00:50;;;;;;;19.95;7.40;;;;;;;29.39;37.36;100218.59;4904155;29;20052;-85
2023/08/17 15:03:19;;;;;;;31.75;8.25;;;;;;;29.35;37.43;100219.88;4905256;29;20071;-89
2023/08/17 15:05:47;;;;;;;71.10;9.23;;;;;;;29.38;38.05;100224.69;4847026;29;20122;-86
2023/08/17 15:08:16;;;;;;;49.95;6.55;;;;;;;29.02;37.32;100177.97;4906839;29;20045;-86
2023/08/17 15:10:48;;;;;;;40.95;7.82;;;;;;;29.07;35.73;100190.78;4895529;29;20060;-88
2023/08/17 15:13:18;;;;;;;27.35;6.60;;;;;;;29.09;36.75;100185.56;4909266;29;20048;-86
2023/08/17 15:15:44;;;;;;;20.08;6.03;;;;;;;28.97;35.10;100180.41;4906896;29;20489;-86
2023/08/17 15:18:10;;;;;;;;;;;;;;;29.30;36.44;100229.56;4875996;29;20083;-86
2023/08/17 15:20:37;;;;;;;;;;;;;;;29.24;37.04;100234.88;4893833;29;19986;-89
2023/08/17 15:23:05;;;;;;;37.92;7.35;;;;;;;28.86;34.69;100205.84;4888770;29;20164;-89
2023/08/17 15:25:34;;;;;;;42.80;6.97;;;;;;;28.91;37.08;100224.31;4872625;29;20067;-88
2023/08/17 15:28:02;;;;;;;38.15;7.72;;;;;;;28.69;36.54;100193.53;4874725;29;20044;-87
2023/08/17 15:30:38;;;;;;;67.50;9.55;;;;;;;28.97;38.11;100253.59;4904147;29;20052;-83
2023/08/17 15:33:04;;;;;;;66.97;9.48;;;;;;;28.70;38.85;100217.66;4904650;29;20123;-89
2023/08/17 15:35:31;;;;;;;38.50;8.05;;;;;;;28.62;39.06;100206.88;4888282;29;20075;-86
2023/08/17 15:37:57;;;;;;;107.47;14.55;;;;;;;28.64;37.64;100229.75;4888773;29;20518;-88
2023/08/17 15:40:23;;;;;;;42.60;8.02;;;;;;;28.34;39.24;100200.22;4862607;29;20623;-91
2023/08/17 15:42:52;;;;;;;57.92;10.55;;;;;;;28.50;38.63;100247.53;4895827;29;20100;-92
2023/08/17 15:45:22;;;;;;;56.92;9.50;;;;;;;28.34;35.99;100234.78;4877739;29;20514;-90
2023/08/17 15:47:48;;;;;;;85.32;10.55;;;;;;;28.18;38.37;100228.88;4875165;29;20049;-89
2023/08/17 15:50:18;;;;;;;55.88;9.48;;;;;;;27.74;40.02;100195.72;4877198;29;20057;-87
2023/08/17 15:52:44;;;;;;;49.70;7.93;;;;;;;27.70;41.43;100197.75;4891095;29;20041;-92
2023/08/17 15:55:15;;;;;;;114.00;14.05;;;;;;;27.62;39.39;100216.66;4893856;29;20057;-90
2023/08/17 15:57:41;;;;;;;215.05;19.38;;;;;;;27.54;39.52;100235.53;4893165;29;20069;-88
2023/08/17 16:00:08;;;;;;;165.70;15.60;;;;;;;27.56;40.89;100237.94;4889417;29;20067;-89
2023/08/17 16:02:37;;;;;;;146.40;14.23;;;;;;;27.31;42.34;100232.38;4899857;29;20044;-90
2023/08/17 16:05:04;;;;;;;114.80;14.77;;;;;;;26.99;43.15;100202.38;4918423;29;20056;-90
2023/08/17 16:07:31;;;;;;;96.70;12.80;;;;;;;26.92;44.04;100217.19;4916404;29;20040;-90
2023/08/17 16:09:57;;;;;;;68.88;10.35;;;;;;;26.75;46.27;100218.00;4850875;29;20051;-90
2023/08/17 16:12:23;;;;;;;70.75;10.77;;;;;;;26.65;46.22;100230.81;4898059;29;20052;-91
2023/08/17 16:14:52;;;;;;;66.80;10.50;;;;;;;26.47;46.35;100219.59;4867694;29;20049;-91
2023/08/17 16:17:20;;;;;;;57.85;10.50;;;;;;;26.33;47.44;100213.16;4848878;29;20065;-91
2023/08/17 16:19:46;;;;;;;48.20;9.52;;;;;;;25.98;47.45;100175.44;4865566;29;20056;-90
2023/08/17 16:22:16;;;;;;;;;;;;;;;26.34;46.67;100243.59;4905320;29;20127;-89
2023/08/17 16:24:42;;;;;;;45.10;9.85;;;;;;;25.87;45.92;100174.63;4947539;23;19935;-92
2023/08/17 16:27:10;;;;;;;57.15;11.57;;;;;;;25.98;47.26;100190.25;4885938;29;20055;-92
2023/08/17 16:29:38;;;;;;;49.53;14.40;;;;;;;25.83;47.69;100177.41;4870146;29;20045;-92
2023/08/17 16:32:04;;;;;;;51.65;15.75;;;;;;;25.90;47.73;100202.66;4890703;29;20059;-90
2023/08/17 16:34:49;;;;;;;61.90;15.48;;;;;;;25.93;47.09;100203.84;4888010;29;20056;-93
2023/08/17 16:37:23;;;;;;;50.35;13.43;;;;;;;25.69;48.28;100199.72;4902756;29;20047;-94
2023/08/17 16:39:49;;;;;;;47.63;15.32;;;;;;;25.68;48.06;100212.13;4879703;29;20459;-90
2023/08/17 16:42:18;;;;;;;123.15;15.45;;;;;;;25.47;46.94;100204.44;4887333;29;20067;-92
2023/08/17 16:44:49;;;;;;;73.68;14.60;;;;;;;25.82;46.66;100273.84;4871468;29;20045;-91
2023/08/17 16:47:26;;;;;;;53.22;12.68;;;;;;;25.41;48.34;100192.81;4917303;29;20055;-92
2023/08/17 16:50:20;;;;;;;51.22;14.77;;;;;;;25.68;48.32;100234.53;4857236;29;20048;-92
2023/08/17 16:52:55;;;;;;;39.25;15.35;;;;;;;25.44;49.14;100205.22;4910583;29;20088;-93
2023/08/17 16:55:54;;;;;;;187.05;19.38;;;;;;;25.75;50.90;100268.16;4873589;29;20048;-94
2023/08/17 16:58:43;;;;;;;62.07;19.70;;;;;;;25.39;50.29;100245.56;4905015;29;20064;-95
2023/08/17 17:01:12;;;;;;;85.35;18.88;;;;;;;24.93;52.43;100212.47;5227266;23;20053;-93
2023/08/17 17:03:51;;;;;;;68.38;18.27;;;;;;;25.22;53.26;100282.66;4858118;29;20044;-93
2023/08/17 17:06:41;;;;;;;;;;;;;;;;;;;;;
2023/08/17 17:10:12;;;;;;;74.47;21.77;;;;;;;24.64;55.37;100249.81;4893594;29;20047;-94
2023/08/17 17:47:52;;;;;;;151.65;66.07;;;;;;;23.74;59.88;100296.28;4965636;29;20059;-93
2023/08/17 17:50:26;;;;;;;162.52;62.03;;;;;;;23.32;60.18;100223.88;4945138;29;20055;-94
2023/08/17 17:53:14;;;;;;;155.95;60.83;;;;;;;23.21;60.67;100210.59;4875850;29;20042;-94
2023/08/17 17:56:25;;;;;;;166.43;62.92;;;;;;;23.24;59.09;100234.13;4861076;29;20047;-92
2023/08/17 17:59:24;;;;;;;141.23;53.30;;;;;;;23.41;59.56;100267.06;4921903;29;20056;-92
2023/08/17 18:01:52;;;;;;;156.73;50.67;;;;;;;23.33;59.79;100268.13;4881368;29;20040;-92
2023/08/17 18:04:21;;;;;;;179.93;62.53;;;;;;;23.07;60.59;100218.72;4905571;29;20116;-91
2023/08/17 18:07:03;;;;;;;166.25;58.70;;;;;;;23.24;60.05;100245.28;4938403;29;20138;-92
2023/08/17 18:09:41;;;;;;;131.20;44.25;;;;;;;23.33;58.05;100264.56;4922378;29;20413;-89
2023/08/17 18:12:09;;;;;;;180.85;63.35;;;;;;;23.51;59.24;100287.13;4958663;29;20039;-88
2023/08/17 18:14:38;;;;;;;215.65;83.03;;;;;;;23.23;60.27;100268.78;4894359;29;20048;-88
2023/08/17 18:17:06;;;;;;;239.85;111.30;;;;;;;23.12;60.36;100237.16;4905832;29;20051;-89
2023/08/17 18:19:33;;;;;;;198.80;85.32;;;;;;;23.23;61.04;100276.34;4902071;29;20048;-89
2023/08/17 18:22:01;;;;;;;216.50;92.03;;;;;;;23.14;61.09;100255.09;4890426;29;20040;-90
2023/08/17 18:24:29;;;;;;;177.63;67.22;;;;;;;23.12;59.65;100242.72;4950495;29;20095;-90
2023/08/17 18:26:57;;;;;;;202.50;71.28;;;;;;;23.12;61.03;100259.47;4925255;29;20046;-90
2023/08/17 18:29:25;;;;;;;222.07;93.63;;;;;;;22.80;61.80;100225.44;4921524;29;20056;-90
2023/08/17 18:31:52;;;;;;;302.23;98.85;;;;;;;23.01;61.73;100273.22;4934336;29;20044;-92
2023/08/17 18:34:20;;;;;;;220.68;86.88;;;;;;;22.71;61.76;100234.88;4937883;29;20048;-90
2023/08/17 18:36:47;;;;;;;162.38;62.95;;;;;;;22.97;62.00;100295.47;4896888;29;20429;-89
2023/08/17 18:39:17;;;;;;;154.32;60.60;;;;;;;22.46;61.36;100228.06;4913547;29;20040;-89
2023/08/17 18:41:43;;;;;;;155.02;57.45;;;;;;;22.54;61.94;100256.84;4909332;29;20067;-89
2023/08/17 18:44:14;;;;;;;187.73;55.42;;;;;;;22.55;61.88;100245.34;4922823;29;20093;-91
2023/08/17 18:46:40;;;;;;;176.80;56.22;;;;;;;22.55;62.50;100262.06;4921543;29;20076;-90
2023/08/17 18:49:08;;;;;;;148.40;51.45;;;;;;;22.41;60.96;100247.88;4914163;29;20042;-90
2023/08/17 18:51:36;;;;;;;231.40;54.65;;;;;;;22.44;63.09;100261.06;4913549;29;20461;-92
2023/08/17 18:54:11;;;;;;;167.63;42.45;;;;;;;22.13;60.10;100214.69;4885569;29;20040;-90
2023/08/17 18:56:53;;;;;;;185.88;48.05;;;;;;;22.17;62.63;100238.69;4902038;29;20079;-89
2023/08/17 18:59:19;;;;;;;233.52;54.08;;;;;;;22.27;64.39;100271.50;4887827;29;20088;-90
2023/08/17 19:01:46;;;;;;;166.25;51.72;;;;;;;21.92;64.77;100215.06;4927572;29;20071;-91
2023/08/17 19:04:15;;;;;;;119.10;46.00;;;;;;;22.05;63.13;100261.91;4871861;29;20052;-91
2023/08/17 19:06:44;;;;;;;144.10;46.38;;;;;;;22.25;64.31;100301.72;4912163;29;20053;-88
2023/08/17 19:09:10;;;;;;;;;;;;;;;22.18;62.97;100298.78;4868553;29;20048;-89
2023/08/17 19:11:38;;;;;;;146.65;42.83;;;;;;;21.70;63.90;100239.72;4894034;29;19954;-90
2023/08/17 19:14:07;;;;;;;114.40;38.83;;;;;;;21.52;62.90;100217.09;4893599;29;20073;-90
2023/08/17 19:16:38;;;;;;;95.38;35.60;;;;;;;21.65;61.25;100225.28;4910145;29;20033;-89
2023/08/17 19:19:07;;;;;;;130.23;41.65;;;;;;;21.96;62.66;100274.44;4882032;29;20065;-89
2023/08/17 19:21:36;;;;;;;128.88;48.55;;;;;;;21.79;64.11;100256.19;4878544;29;20511;-89
2023/08/17 19:24:11;;;;;;;131.80;50.03;;;;;;;21.51;64.59;100221.00;4873747;29;20053;-89
2023/08/17 19:26:40;;;;;;;164.20;53.10;;;;;;;21.44;65.52;100214.50;4879625;29;20048;-90
2023/08/17 19:29:09;;;;;;;164.32;70.38;;;;;;;21.81;63.68;100262.19;4881940;29;20068;-91
2023/08/17 19:31:40;;;;;;;157.25;66.30;;;;;;;21.54;64.74;100231.41;4912093;29;20057;-91
2023/08/17 19:34:07;;;;;;;178.70;72.10;;;;;;;21.43;64.32;100201.78;4865183;29;20045;-90
2023/08/17 19:36:39;;;;;;;153.07;67.00;;;;;;;21.57;63.88;100227.09;4913906;29;20040;-93
2023/08/17 19:39:29;;;;;;;132.18;65.50;;;;;;;21.40;62.56;100208.88;4913835;29;20060;-93
2023/08/17 19:42:02;;;;;;;151.00;63.70;;;;;;;21.36;64.21;100196.88;4888287;29;20027;-93
2023/08/17 19:44:29;;;;;;;145.80;64.15;;;;;;;21.68;63.06;100264.31;4888691;29;20053;-93
2023/08/17 19:46:56;;;;;;;186.50;107.05;;;;;;;21.51;62.82;100232.16;4919694;29;20063;-92